Aérodrome :
LOGIN :

S'inscrire | Disclaimer

   EN    FR    IT 

 










Légende :    VFR   VFR Marginal   IFR   IFR Intensif   IFR Très Intensif
Visi : 
Plafond : 
>= 8 km
>= 3000ft
5 à 8 km
1000 à 3000 ft
1500m à 5 km
500 à 1000 ft
800 à 1500m
200 à 500 ft
< 800m
< 200 ft
Symboles :   Orages  Brouillard  Fortes neiges  Fortes précipitations  Vent > 20 kt
SIGMETs :   Divers  Orages  Givrage  Turbulence  Onde Orograph.  Cendres Volcan.







- Altitude de l'aérodrome : 336 ft
- Code IATA : GCI
- Voir les cartes d'approche


EGJB - Guernsey

DERNIER METAR :
  • 131620Z 29023KT 9999 VCSH SCT012 BKN045 09/06 Q0998

METARs EXPIRÉS :
  • 131550Z 29026G39KT 8000 -SHRA FEW007 BKN012 09/08 Q0998 RESHRA
  • 131520Z 27024G34KT 9999 VCSH SCT012 11/08 Q0998
  • 131450Z 26022G32KT 9999 VCSH FEW005 BKN012 11/09 Q0998 RESHRA
  • 131420Z 26022KT 9999 -SHRA FEW004 BKN009 11/10 Q0998
  • 131350Z 23023KT 9000 -SHRA SCT004 BKN006 11/10 Q0998

TAF TAF EGJB
Valide du 13 à 15h jusqu'au 14 à 00h UTC


131408Z 1315/1324 28030G45KT 9999 FEW010 SCT015CB
TEMPO 1315/1316 BKN008
TEMPO 1315/1324 3000 +SHRAGS BKN012CB
BECMG 1319/1321 28038G60KT
ATIS : +44 1481 238 957
Pas de NOTAMs connus pour ce terrain.
2 SIGMETs publiés pour la FIR Brest (LFRR) :
 
Turbulence forte
LFRR SIGMET 2 VALID 131500/131900 LFPW
LFRR BREST FIR/UIR SEV TURB FCST WI N4800 W00800 - N4900 W00800 - N4930 W00530 - N4830 W00530 - N4800 W00800 SFC/FL060 MOV E 50KT NC=
Turbulence forte
LFRR SIGMET 1 VALID 131500/131900 LFPW
LFRR BREST FIR/UIR SEV TURB FCST WI N4400 W00400 - N4445 W00700 - N4815 W00430 - N4745 W00015 - N4630 W00015 - N4630 W00130 - N4445 W00145 - N4400 W00400 SFC/FL050 MOV E 40KT NC=



MET'MAP, la Météo Aéronautique d'un coup d'oeil ! - Copyright ORBIFLY Décembre 2007 - Disclaimer

ORBIFLY MET'MAP TEAM :

Programmation & Développement : Alexandra Zaïnal
Conception & Développement : Baudouin d'Aumeries
Co-Programmation & Développement : Marc-Olivier Méhu
Soutien technique & logistique : Manuel Goepfert

Contact : metmap@orbifly.com




SOURCES & CREDITS :

   NOAA